Time;durP1;ratioP1;P1;durP2;ratioP2;P2;SDS_P1;SDS_P2;PMS_P1;PMS_P2;Temp;Humidity;BMP_temperature;BMP_pressure;BME280_temperature;BME280_humidity;BME280_pressure;Samples;Min_cycle;Max_cycle;Signal;HPM_P1;HPM_P2
2023/10/04 00:08:51;;;;;;;124.25;64.25;;;11.70;99.90;;;;;;25880216;23;20089;-59
2023/10/04 00:18:56;;;;;;;125.65;63.40;;;11.70;99.90;;;;;;25837966;23;20431;-52
2023/10/04 00:28:58;;;;;;;131.68;67.43;;;11.60;99.90;;;;;;25837112;23;20331;-60
2023/10/04 00:39:00;;;;;;;128.25;65.95;;;11.70;99.90;;;;;;25836870;23;20008;-53
2023/10/04 00:49:04;;;;;;;143.05;71.40;;;11.80;99.90;;;;;;25836580;23;20004;-53
2023/10/04 00:59:07;;;;;;;139.93;70.13;;;11.90;99.90;;;;;;25809354;23;20193;-59
2023/10/04 01:09:10;;;;;;;123.45;62.17;;;12.00;99.90;;;;;;25808829;23;20398;-53
2023/10/04 01:19:15;;;;;;;134.60;67.38;;;11.80;99.90;;;;;;25835341;23;20015;-49
2023/10/04 01:29:18;;;;;;;145.65;71.22;;;11.80;99.90;;;;;;25835405;23;20019;-59
2023/10/04 01:39:20;;;;;;;157.50;76.65;;;11.80;99.90;;;;;;25808464;23;20425;-53
2023/10/04 01:49:22;;;;;;;166.57;76.93;;;11.70;99.90;;;;;;25834838;23;20742;-61
2023/10/04 01:59:24;;;;;;;99.28;52.42;;;11.70;99.90;;;;;;25807317;23;20006;-50
2023/10/04 02:09:25;;;;;;;110.10;54.33;;;11.70;99.90;;;;;;25834131;23;20493;-49
2023/10/04 02:19:30;;;;;;;103.13;52.78;;;11.70;99.90;;;;;;25833269;23;20043;-52
2023/10/04 02:29:33;;;;;;;96.50;51.45;;;11.80;99.90;;;;;;25832275;23;20012;-49
2023/10/04 02:39:39;;;;;;;114.70;55.83;;;11.80;99.90;;;;;;25806123;23;20008;-47
2023/10/04 02:49:42;;;;;;;99.22;51.10;;;11.80;99.90;;;;;;25832653;23;20035;-52
2023/10/04 02:59:44;;;;;;;87.05;48.38;;;11.80;99.90;;;;;;25806317;23;20004;-48
2023/10/04 03:09:47;;;;;;;75.65;43.80;;;12.10;99.90;;;;;;25805779;23;20015;-51
2023/10/04 03:19:51;;;;;;;82.00;45.08;;;12.00;99.90;;;;;;25804336;23;20081;-53
2023/10/04 03:29:57;;;;;;;92.45;49.40;;;11.90;99.90;;;;;;25809010;23;20147;-60
2023/10/04 03:40:00;;;;;;;81.95;42.88;;;11.80;99.90;;;;;;25880579;23;20433;-59
2023/10/04 03:50:06;;;;;;;88.78;48.60;;;11.60;99.90;;;;;;25811145;23;20012;-51
2023/10/04 04:00:17;;;;;;;67.82;38.78;;;11.50;99.90;;;;;;25810084;23;20012;-51
2023/10/04 04:10:21;;;;;;;75.82;42.13;;;11.50;99.90;;;;;;25878971;23;20418;-59
2023/10/04 04:20:23;;;;;;;53.47;33.83;;;11.50;99.90;;;;;;25784447;23;20451;-56
2023/10/04 04:30:31;;;;;;;34.95;21.80;;;11.80;99.90;;;;;;25809139;23;20034;-59
2023/10/04 04:40:35;;;;;;;24.50;16.63;;;12.60;99.90;;;;;;25877597;23;20008;-59
2023/10/04 04:50:37;;;;;;;24.63;16.90;;;13.20;99.90;;;;;;25808566;23;20004;-53
2023/10/04 05:00:43;;;;;;;24.00;16.10;;;13.40;99.90;;;;;;25835097;23;20011;-49
2023/10/04 05:10:45;;;;;;;16.73;11.27;;;13.40;99.90;;;;;;25834633;23;20004;-52
2023/10/04 05:20:55;;;;;;;16.58;11.45;;;13.30;99.90;;;;;;25834189;23;20322;-59
2023/10/04 05:30:57;;;;;;;18.17;11.40;;;13.20;99.90;;;;;;25858044;23;20012;-59
2023/10/04 05:41:01;;;;;;;14.43;10.73;;;12.90;99.90;;;;;;25833203;23;20004;-59
2023/10/04 05:51:06;;;;;;;13.20;9.27;;;13.10;99.90;;;;;;25832569;23;20004;-59
2023/10/04 06:01:12;;;;;;;12.40;8.20;;;13.10;99.90;;;;;;25832569;23;20004;-51
2023/10/04 06:11:14;;;;;;;20.20;14.60;;;13.00;99.90;;;;;;25874739;23;20039;-53
2023/10/04 06:21:16;;;;;;;20.30;13.93;;;13.50;99.90;;;;;;25832285;23;20323;-61
2023/10/04 06:31:18;;;;;;;22.20;14.00;;;14.20;99.90;;;;;;25805340;23;20012;-59
2023/10/04 06:41:24;;;;;;;21.20;13.75;;;14.60;99.90;;;;;;25832201;23;20024;-52
2023/10/04 06:51:25;;;;;;;18.55;13.38;;;14.80;99.90;;;;;;25873231;23;20013;-54
2023/10/04 07:01:27;;;;;;;21.65;14.23;;;15.10;99.90;;;;;;25833730;23;20546;-61
2023/10/04 07:11:29;;;;;;;22.20;15.32;;;15.70;99.90;;;;;;25840133;23;20007;-52
2023/10/04 07:21:31;;;;;;;21.98;16.13;;;16.40;99.90;;;;;;25841456;23;20012;-60
2023/10/04 07:31:34;;;;;;;25.42;18.98;;;16.60;99.90;;;;;;25840857;23;20008;-49
2023/10/04 07:41:37;;;;;;;26.08;19.38;;;16.70;99.90;;;;;;25839260;23;20276;-61
2023/10/04 07:51:38;;;;;;;27.27;22.27;;;16.80;99.90;;;;;;25839846;23;20130;-61
2023/10/04 08:01:40;;;;;;;28.27;21.15;;;16.80;99.90;;;;;;25839876;23;20004;-52
2023/10/04 08:11:42;;;;;;;28.55;20.65;;;17.00;99.90;;;;;;25839374;23;20061;-50
2023/10/04 08:21:45;;;;;;;26.98;21.15;;;17.10;99.90;;;;;;25838517;23;20008;-51
2023/10/04 08:31:47;;;;;;;27.88;20.20;;;17.50;99.90;;;;;;25838239;23;20358;-61
2023/10/04 08:41:49;;;;;;;29.60;20.58;;;17.80;99.90;;;;;;25837835;23;20090;-61
2023/10/04 08:52:20;;;;;;;27.60;20.55;;;18.50;99.90;;;;;;25837412;23;20016;-53
2023/10/04 09:02:23;;;;;;;25.00;20.02;;;19.20;99.90;;;;;;25837167;23;20069;-51
2023/10/04 09:12:24;;;;;;;27.48;21.58;;;19.10;99.90;;;;;;25836973;23;20015;-53
2023/10/04 09:22:31;;;;;;;26.55;20.92;;;18.90;99.90;;;;;;25835625;23;20008;-61
2023/10/04 09:32:40;;;;;;;26.40;20.90;;;19.20;99.90;;;;;;25852858;23;20439;-52
2023/10/04 09:42:53;;;;;;;25.05;20.55;;;19.80;99.90;;;;;;25877548;23;20439;-52
2023/10/04 09:52:55;;;;;;;25.40;19.17;;;19.50;99.90;;;;;;25877575;23;20004;-52
2023/10/04 10:03:02;;;;;;;24.52;20.17;;;19.80;99.90;;;;;;25833823;23;20011;-51
2023/10/04 10:13:09;;;;;;;24.55;20.33;;;19.60;99.90;;;;;;25876881;23;20378;-51
2023/10/04 10:23:15;;;;;;;23.80;19.40;;;19.20;99.90;;;;;;25876077;23;20027;-62
2023/10/04 10:33:22;;;;;;;23.23;19.15;;;18.80;99.90;;;;;;25844755;23;20259;-49
2023/10/04 10:43:24;;;;;;;23.15;18.38;;;19.80;99.90;;;;;;25884835;23;20012;-47
2023/10/04 10:53:26;;;;;;;28.85;22.85;;;21.80;99.90;;;;;;25842404;23;20305;-48
2023/10/04 11:03:28;;;;;;;23.83;20.25;;;21.90;99.90;;;;;;25842272;23;20012;-61
2023/10/04 11:13:31;;;;;;;23.88;19.52;;;22.90;99.90;;;;;;25841585;23;20418;-50
2023/10/04 11:23:37;;;;;;;28.10;21.50;;;23.50;99.90;;;;;;25841497;23;20339;-52
2023/10/04 11:33:59;;;;;;;28.48;23.33;;;22.20;99.90;;;;;;25840537;23;20012;-51
2023/10/04 11:44:03;;;;;;;28.80;21.88;;;22.20;99.90;;;;;;25882415;23;20417;-52
2023/10/04 11:54:05;;;;;;;33.20;24.10;;;20.90;99.90;;;;;;25839081;23;20008;-52
2023/10/04 12:04:08;;;;;;;33.75;26.35;;;21.00;99.90;;;;;;25839617;23;20008;-49
2023/10/04 12:14:10;;;;;;;39.33;31.38;;;20.80;99.90;;;;;;25838824;23;20008;-53
2023/10/04 12:24:12;;;;;;;43.15;35.03;;;19.80;99.90;;;;;;25839119;23;20012;-60
2023/10/04 12:34:14;;;;;;;43.47;35.42;;;18.60;99.90;;;;;;25452600;23;20076;-50
2023/10/04 12:44:19;;;;;;;40.95;34.28;;;19.10;99.90;;;;;;25452598;23;20009;-61
2023/10/04 12:54:23;;;;;;;42.97;35.90;;;18.70;99.90;;;;;;25452026;23;20013;-52
2023/10/04 13:04:27;;;;;;;48.60;38.50;;;18.40;99.90;;;;;;25759961;23;20012;-51
2023/10/04 13:14:29;;;;;;;43.28;34.80;;;19.20;99.90;;;;;;25836749;23;20004;-53
2023/10/04 13:24:31;;;;;;;43.85;34.72;;;19.80;99.90;;;;;;25836392;23;20050;-63
2023/10/04 13:34:33;;;;;;;49.22;37.67;;;19.20;99.90;;;;;;25835624;23;20012;-51
2023/10/04 13:44:34;;;;;;;46.42;38.22;;;18.50;99.90;;;;;;25835492;23;20004;-50
2023/10/04 13:54:40;;;;;;;47.92;38.35;;;17.60;99.90;;;;;;25835470;23;20008;-61
2023/10/04 14:04:42;;;;;;;44.72;37.63;;;17.80;99.90;;;;;;25877078;23;20607;-62
2023/10/04 14:14:45;;;;;;;50.97;38.55;;;17.30;99.90;;;;;;25834719;23;20058;-60
2023/10/04 14:24:48;;;;;;;51.22;40.83;;;16.60;99.90;;;;;;25833878;23;20015;-60
2023/10/04 14:34:50;;;;;;;51.30;40.83;;;16.30;99.90;;;;;;25833131;23;20016;-60
2023/10/04 14:44:54;;;;;;;49.75;39.55;;;16.30;99.90;;;;;;25833613;23;20099;-51
2023/10/04 14:54:59;;;;;;;48.92;39.00;;;16.20;99.90;;;;;;25834946;23;20054;-58
2023/10/04 15:05:01;;;;;;;45.88;37.03;;;16.30;99.90;;;;;;25835257;23;20505;-60
2023/10/04 15:15:07;;;;;;;45.95;37.75;;;16.30;99.90;;;;;;25833525;23;20030;-52
2023/10/04 15:25:14;;;;;;;49.22;37.60;;;16.10;99.90;;;;;;25879112;23;20011;-60
2023/10/04 15:35:20;;;;;;;44.28;35.95;;;16.10;99.90;;;;;;25846988;23;20023;-61
2023/10/04 15:45:23;;;;;;;48.28;37.15;;;16.00;99.90;;;;;;25882463;23;20023;-60
2023/10/04 15:55:25;;;;;;;46.00;35.97;;;15.80;99.90;;;;;;25840055;23;20074;-53
2023/10/04 16:05:27;;;;;;;48.30;36.03;;;15.70;99.90;;;;;;25839720;23;20007;-52
2023/10/04 16:15:29;;;;;;;46.63;37.88;;;15.50;99.90;;;;;;25839210;23;20004;-52
2023/10/04 16:25:31;;;;;;;46.72;37.35;;;15.30;99.90;;;;;;25811206;23;20094;-53
2023/10/04 16:35:33;;;;;;;56.55;39.88;;;15.10;99.90;;;;;;25838823;23;20012;-53
2023/10/04 16:45:35;;;;;;;50.83;40.35;;;14.90;99.90;;;;;;25838930;23;20004;-53
2023/10/04 16:55:37;;;;;;;49.63;38.95;;;14.80;99.90;;;;;;25838545;23;20054;-59
2023/10/04 17:05:39;;;;;;;51.53;38.50;;;14.70;99.90;;;;;;25838178;23;20455;-60
2023/10/04 17:15:42;;;;;;;59.42;43.88;;;14.60;99.90;;;;;;25837663;23;20012;-52
2023/10/04 17:25:44;;;;;;;64.38;43.63;;;14.20;99.90;;;;;;25836847;23;20012;-49
2023/10/04 17:35:47;;;;;;;64.13;46.50;;;13.90;99.90;;;;;;25836372;23;20355;-59
2023/10/04 17:45:51;;;;;;;74.95;49.50;;;13.80;99.90;;;;;;25836340;23;20004;-51
2023/10/04 17:55:53;;;;;;;85.53;55.50;;;13.60;99.90;;;;;;25835690;23;20000;-49
2023/10/04 18:05:55;;;;;;;97.63;61.28;;;13.30;99.90;;;;;;25835674;23;20042;-53
2023/10/04 18:15:56;;;;;;;80.60;52.05;;;13.20;99.90;;;;;;25835246;23;20423;-52
2023/10/04 18:25:58;;;;;;;79.95;52.58;;;13.20;99.90;;;;;;25835442;23;20000;-59
2023/10/04 18:36:00;;;;;;;79.93;54.13;;;13.20;99.90;;;;;;25838404;23;20091;-59
2023/10/04 18:46:02;;;;;;;77.15;50.83;;;13.40;99.90;;;;;;25834721;23;20036;-52
2023/10/04 18:56:05;;;;;;;71.38;50.67;;;13.50;99.90;;;;;;25809799;23;20004;-51
2023/10/04 19:06:07;;;;;;;68.85;46.30;;;13.60;99.90;;;;;;25839870;23;20000;-49
2023/10/04 19:16:10;;;;;;;64.45;45.75;;;13.60;99.90;;;;;;25842260;23;20004;-59
2023/10/04 19:26:15;;;;;;;67.65;45.40;;;13.60;99.90;;;;;;25841928;23;20008;-50
2023/10/04 19:36:20;;;;;;;65.55;44.20;;;13.50;99.90;;;;;;25840963;23;20078;-51
2023/10/04 19:46:25;;;;;;;88.57;53.65;;;13.10;99.90;;;;;;25840822;23;20058;-49
2023/10/04 19:56:27;;;;;;;89.57;54.15;;;12.70;99.90;;;;;;25840343;23;20332;-49
2023/10/04 20:06:30;;;;;;;97.90;57.42;;;12.50;99.90;;;;;;25839851;23;20008;-59
2023/10/04 20:16:32;;;;;;;93.22;55.58;;;12.50;99.90;;;;;;25839699;23;20001;-51
2023/10/04 20:26:34;;;;;;;91.00;55.38;;;12.50;99.90;;;;;;25838894;23;20004;-51
2023/10/04 20:36:37;;;;;;;79.20;51.17;;;12.70;99.90;;;;;;25838455;23;20016;-59
2023/10/04 20:46:38;;;;;;;72.63;46.58;;;12.80;99.90;;;;;;25838283;23;20035;-49
2023/10/04 20:56:40;;;;;;;71.65;46.03;;;13.00;99.90;;;;;;25837663;23;20066;-52
2023/10/04 21:06:42;;;;;;;64.43;42.83;;;13.00;99.90;;;;;;25837343;23;20005;-59
2023/10/04 21:16:44;;;;;;;64.07;44.20;;;12.90;99.90;;;;;;25836771;23;20008;-53
2023/10/04 21:26:46;;;;;;;69.80;45.10;;;12.90;99.90;;;;;;25836154;23;20327;-59
2023/10/04 21:36:48;;;;;;;69.40;44.58;;;12.80;99.90;;;;;;25835590;23;20008;-59
2023/10/04 21:46:50;;;;;;;72.82;47.60;;;12.70;99.90;;;;;;25835811;23;20341;-52
2023/10/04 21:56:52;;;;;;;74.00;48.05;;;12.90;99.90;;;;;;25808664;23;20008;-52
2023/10/04 22:06:54;;;;;;;61.22;40.10;;;13.00;99.90;;;;;;25836536;23;20008;-49
2023/10/04 22:16:55;;;;;;;54.67;39.05;;;13.20;99.90;;;;;;25835674;23;20005;-59
2023/10/04 22:26:58;;;;;;;48.15;34.92;;;13.40;99.90;;;;;;25834393;23;20080;-57
2023/10/04 22:37:00;;;;;;;46.83;32.17;;;13.40;99.90;;;;;;25875867;23;20094;-50
2023/10/04 22:47:02;;;;;;;46.03;31.80;;;13.40;99.90;;;;;;25834229;23;20030;-59
2023/10/04 22:57:05;;;;;;;47.25;35.03;;;13.40;99.90;;;;;;25833935;23;20008;-53
2023/10/04 23:07:10;;;;;;;40.20;30.33;;;13.40;99.90;;;;;;25833342;23;20055;-60
2023/10/04 23:17:14;;;;;;;46.80;32.70;;;13.30;99.90;;;;;;25833219;23;20011;-52
2023/10/04 23:27:16;;;;;;;45.22;32.78;;;13.20;99.90;;;;;;25832985;23;20012;-52
2023/10/04 23:37:22;;;;;;;48.63;33.83;;;13.20;99.90;;;;;;25875545;23;20008;-52
2023/10/04 23:47:24;;;;;;;44.92;31.02;;;13.10;99.90;;;;;;25838206;23;20408;-53
2023/10/04 23:57:26;;;;;;;40.47;28.50;;;13.20;99.90;;;;;;25839539;23;20004;-51
